Time;durP1;ratioP1;P1;durP2;ratioP2;P2;SDS_P1;SDS_P2;PMS_P1;PMS_P2;Temp;Humidity;BMP_temperature;BMP_pressure;BME280_temperature;BME280_humidity;BME280_pressure;Samples;Min_cycle;Max_cycle;Signal;HPM_P1;HPM_P2
2022/02/20 00:01:57;;;;;;;;;;;;;;;17.32;41.46;100954.03;5072187;28;902;-53
2022/02/20 00:04:23;;;;;;;;;;;;;;;16.81;42.80;100961.06;5075948;28;777;-53
2022/02/20 00:06:48;;;;;;;;;;;;;;;16.63;43.27;100962.38;5076110;28;833;-51
2022/02/20 00:09:14;;;;;;;;;;;;;;;16.14;44.50;100962.72;5076156;28;796;-51
2022/02/20 00:11:39;;;;;;;;;;;;;;;15.80;45.55;100969.38;5075763;28;1000;-52
2022/02/20 00:14:05;;;;;;;;;;;;;;;18.01;40.43;100952.63;5075876;28;1096;-52
2022/02/20 00:16:30;;;;;;;;;;;;;;;18.55;38.73;100966.75;5075285;28;884;-52
2022/02/20 00:18:56;;;;;;;;;;;;;;;18.02;39.94;100976.28;5075821;28;1909;-52
2022/02/20 00:21:21;;;;;;;;;;;;;;;17.61;40.71;100981.81;5076235;28;702;-53
2022/02/20 00:23:46;;;;;;;;;;;;;;;15.84;44.79;100961.44;5075999;28;785;-53
2022/02/20 00:26:12;;;;;;;;;;;;;;;16.45;43.99;100949.16;5076426;28;782;-50
2022/02/20 00:28:39;;;;;;;;;;;;;;;18.70;38.74;100950.16;5075807;28;793;-53
2022/02/20 00:31:04;;;;;;;;;;;;;;;18.12;39.92;100950.69;5076092;28;816;-54
2022/02/20 00:33:31;;;;;;;;;;;;;;;18.01;40.05;100947.13;5076223;28;784;-52
2022/02/20 00:35:57;;;;;;;;;;;;;;;17.06;41.98;100945.78;5108352;28;872;-52
2022/02/20 00:38:22;;;;;;;;;;;;;;;15.37;46.22;100938.31;5075831;28;1914;-53
2022/02/20 00:40:48;;;;;;;;;;;;;;;17.94;40.53;100947.41;5075576;28;947;-51
2022/02/20 00:43:15;;;;;;;;;;;;;;;18.57;38.82;100942.53;5108411;28;1303;-49
2022/02/20 00:45:40;;;;;;;;;;;;;;;17.84;40.41;100941.91;5075801;28;766;-54
2022/02/20 00:48:06;;;;;;;;;;;;;;;17.40;41.55;100950.75;5075588;28;805;-53
2022/02/20 00:50:33;;;;;;;;;;;;;;;15.95;44.85;100962.31;5075971;28;793;-54
2022/02/20 00:52:58;;;;;;;;;;;;;;;16.46;44.25;100943.38;5075312;28;788;-52
2022/02/20 00:55:25;;;;;;;;;;;;;;;18.76;39.01;100949.03;5075805;28;798;-55
2022/02/20 00:57:52;;;;;;;;;;;;;;;18.14;39.87;100940.19;5108372;28;1918;-53
2022/02/20 01:00:17;;;;;;;;;;;;;;;17.92;40.60;100940.53;5075727;28;828;-54
2022/02/20 01:02:43;;;;;;;;;;;;;;;16.79;42.78;100954.19;5074254;28;1199;-55
2022/02/20 01:05:08;;;;;;;;;;;;;;;15.38;46.09;100949.00;5075635;28;854;-54
2022/02/20 01:07:34;;;;;;;;;;;;;;;18.27;39.88;100950.63;5075997;28;1040;-52
2022/02/20 01:09:59;;;;;;;;;;;;;;;18.55;38.99;100947.47;5075472;28;763;-54
2022/02/20 01:12:25;;;;;;;;;;;;;;;17.93;40.51;100939.44;5107817;28;1209;-55
2022/02/20 01:14:50;;;;;;;;;;;;;;;17.31;41.61;100944.16;5075627;28;955;-54
2022/02/20 01:17:16;;;;;;;;;;;;;;;15.65;45.66;100926.19;5078866;28;1972;-52
2022/02/20 01:19:41;;;;;;;;;;;;;;;17.22;42.27;100941.09;5111482;28;1293;-54
2022/02/20 01:22:07;;;;;;;;;;;;;;;18.90;38.43;100940.16;5111683;28;1127;-54
2022/02/20 01:24:33;;;;;;;;;;;;;;;18.12;39.94;100942.44;5078979;28;789;-54
2022/02/20 01:26:58;;;;;;;;;;;;;;;18.47;39.28;100938.69;5078654;28;825;-54
2022/02/20 01:29:24;;;;;;;;;;;;;;;16.72;42.88;100944.28;5079151;28;765;-52
2022/02/20 01:31:49;;;;;;;;;;;;;;;15.24;46.72;100947.78;5078467;28;947;-54
2022/02/20 01:34:15;;;;;;;;;;;;;;;17.86;40.91;100953.44;5078792;28;800;-52
2022/02/20 01:36:40;;;;;;;;;;;;;;;18.84;38.52;100949.53;5078955;28;774;-50
2022/02/20 01:39:12;;;;;;;;;;;;;;;18.14;39.98;100956.72;5111527;28;1165;-50
2022/02/20 01:41:37;;;;;;;;;;;;;;;18.02;40.32;100947.94;5111304;28;1104;-54
2022/02/20 01:44:04;;;;;;;;;;;;;;;16.13;44.39;100947.34;5111030;28;1330;-53
2022/02/20 01:46:29;;;;;;;;;;;;;;;15.88;45.73;100948.88;5111013;28;1132;-53
2022/02/20 01:48:55;;;;;;;;;;;;;;;18.57;39.29;100931.50;5078584;28;769;-52
2022/02/20 01:51:20;;;;;;;;;;;;;;;18.39;39.31;100936.53;5111194;28;1517;-53
2022/02/20 01:53:48;;;;;;;;;;;;;;;18.72;38.80;100922.31;5078468;28;793;-54
2022/02/20 01:56:14;;;;;;;;;;;;;;;17.92;40.29;100927.63;5078198;28;777;-54
2022/02/20 01:58:40;;;;;;;;;;;;;;;15.89;45.19;100925.81;5078860;28;1975;-53
2022/02/20 02:01:24;;;;;;;;;;;;;;;16.57;44.25;100919.53;5077807;28;874;-54
2022/02/20 02:04:09;;;;;;;;;;;;;;;18.99;38.64;100905.38;5077985;28;1053;-52
2022/02/20 02:06:43;;;;;;;;;;;;;;;18.37;39.52;100913.97;5104478;28;1259;-53
2022/02/20 02:09:12;;;;;;;;;;;;;;;18.44;39.40;100913.69;5092984;28;1207;-52
2022/02/20 02:12:06;;;;;;;;;;;;;;;16.54;43.54;100920.09;5073875;28;1191;-53
2022/02/20 02:14:59;;;;;;;;;;;;;;;15.97;45.28;100933.53;5093708;28;1132;-54
2022/02/20 02:17:40;;;;;;;;;;;;;;;18.74;38.86;100933.88;5057880;28;1909;-53
2022/02/20 02:20:37;;;;;;;;;;;;;;;18.40;39.79;100942.88;5044393;28;1152;-53
2022/02/20 02:23:21;;;;;;;;;;;;;;;18.82;38.73;100941.56;5077161;28;732;-53
2022/02/20 02:25:54;;;;;;;;;;;;;;;16.92;42.68;100951.78;5059267;28;1112;-53
2022/02/20 02:28:34;;;;;;;;;;;;;;;15.34;46.62;100950.59;5077278;28;845;-54
2022/02/20 02:31:03;;;;;;;;;;;;;;;17.24;42.59;100952.66;5056901;28;1174;-54
2022/02/20 02:33:29;;;;;;;;;;;;;;;18.90;38.64;100963.03;5059989;28;1407;-53
2022/02/20 02:35:55;;;;;;;;;;;;;;;18.29;39.76;100969.63;5077543;28;778;-54
2022/02/20 02:38:26;;;;;;;;;;;;;;;18.34;39.62;100966.84;5059486;28;1910;-54
2022/02/20 02:40:56;;;;;;;;;;;;;;;16.24;44.25;100966.34;5060138;28;1183;-51
2022/02/20 02:43:22;;;;;;;;;;;;;;;16.25;44.71;100967.16;5077604;28;837;-49
2022/02/20 02:45:49;;;;;;;;;;;;;;;18.68;39.23;100952.38;5076989;28;832;-52
2022/02/20 02:48:14;;;;;;;;;;;;;;;18.28;39.86;100957.75;5077331;28;848;-52
2022/02/20 02:50:40;;;;;;;;;;;;;;;18.23;39.95;100956.94;5058798;28;784;-53
2022/02/20 02:53:07;;;;;;;;;;;;;;;17.15;42.16;100962.53;5077268;28;790;-53
2022/02/20 02:55:33;;;;;;;;;;;;;;;15.51;45.77;100968.84;5059085;28;1436;-54
2022/02/20 02:57:59;;;;;;;;;;;;;;;17.20;42.56;100959.81;5059181;28;1968;-53
2022/02/20 03:00:25;;;;;;;;;;;;;;;18.93;38.31;100950.63;5077096;28;761;-54
2022/02/20 03:02:50;;;;;;;;;;;;;;;18.01;40.21;100963.63;5077238;28;904;-53
2022/02/20 03:05:16;;;;;;;;;;;;;;;18.20;40.06;100960.28;5058337;28;1103;-53
2022/02/20 03:07:43;;;;;;;;;;;;;;;16.47;43.82;100944.22;5059008;28;1251;-50
2022/02/20 03:10:09;;;;;;;;;;;;;;;15.94;45.53;100949.72;5058704;28;1217;-51
2022/02/20 03:12:36;;;;;;;;;;;;;;;18.53;39.46;100949.69;5058395;28;1157;-52
2022/02/20 03:15:02;;;;;;;;;;;;;;;18.46;39.24;100956.31;5075646;28;1249;-54
2022/02/20 03:17:28;;;;;;;;;;;;;;;18.24;39.77;100964.97;5074930;28;1981;-54
2022/02/20 03:19:54;;;;;;;;;;;;;;;17.50;41.43;100977.41;5109583;28;1108;-53
2022/02/20 03:22:19;;;;;;;;;;;;;;;15.74;45.72;100982.19;5109711;28;1247;-53
2022/02/20 03:24:45;;;;;;;;;;;;;;;16.67;44.10;100984.66;5108876;28;1042;-52
2022/02/20 03:27:14;;;;;;;;;;;;;;;18.94;38.57;100977.03;5108903;28;1614;-52
2022/02/20 03:29:40;;;;;;;;;;;;;;;18.11;40.03;100982.84;5109223;28;1260;-55
2022/02/20 03:32:06;;;;;;;;;;;;;;;17.88;40.61;100976.00;5074905;28;1305;-53
2022/02/20 03:34:32;;;;;;;;;;;;;;;16.56;43.68;100972.78;5076552;28;754;-54
2022/02/20 03:37:00;;;;;;;;;;;;;;;15.40;46.48;100963.28;5103039;28;1917;-55
2022/02/20 03:39:33;;;;;;;;;;;;;;;18.17;40.24;100969.91;5102602;28;1216;-54
2022/02/20 03:42:04;;;;;;;;;;;;;;;18.55;39.25;100978.59;5075117;28;1735;-52
2022/02/20 03:44:47;;;;;;;;;;;;;;;17.90;40.47;100959.22;5108911;28;2254;-54
2022/02/20 03:47:16;;;;;;;;;;;;;;;16.97;42.50;100969.38;5108483;28;1232;-54
2022/02/20 03:49:42;;;;;;;;;;;;;;;15.50;46.13;100970.75;5109247;28;1242;-52
2022/02/20 03:52:18;;;;;;;;;;;;;;;18.05;40.65;100981.22;5108565;28;1275;-52
2022/02/20 03:54:47;;;;;;;;;;;;;;;18.89;38.43;100988.13;5091298;28;1125;-53
2022/02/20 03:57:13;;;;;;;;;;;;;;;19.05;38.45;100986.91;5109350;28;1910;-54
2022/02/20 04:00:20;;;;;;;;;;;;;;;18.13;40.19;100982.56;5071607;28;1042;-53
2022/02/20 04:02:57;;;;;;;;;;;;;;;16.81;43.04;100977.53;5072880;28;1164;-55
2022/02/20 04:05:22;;;;;;;;;;;;;;;15.18;47.11;100974.31;5074200;28;1219;-55
2022/02/20 04:07:48;;;;;;;;;;;;;;;17.86;41.25;100967.19;5074457;28;1289;-54
2022/02/20 04:10:17;;;;;;;;;;;;;;;18.58;39.05;100956.00;5071506;28;1357;-54
2022/02/20 04:12:42;;;;;;;;;;;;;;;17.96;40.56;100966.38;5069211;28;1258;-54
2022/02/20 04:15:11;;;;;;;;;;;;;;;17.56;41.41;100962.56;5074244;28;1353;-54
2022/02/20 04:17:42;;;;;;;;;;;;;;;15.87;45.15;100975.44;5072232;28;1975;-53
2022/02/20 04:20:08;;;;;;;;;;;;;;;16.20;45.20;100976.22;5074639;28;1371;-55
2022/02/20 04:22:34;;;;;;;;;;;;;;;18.67;39.06;100991.22;5108057;28;1336;-54
2022/02/20 04:24:59;;;;;;;;;;;;;;;18.32;39.86;100985.56;5070807;28;1396;-54
2022/02/20 04:27:25;;;;;;;;;;;;;;;18.17;40.11;100983.66;5074659;28;1342;-54
2022/02/20 04:29:50;;;;;;;;;;;;;;;17.19;42.25;100974.63;5075777;28;773;-54
2022/02/20 04:32:16;;;;;;;;;;;;;;;15.51;46.06;100979.81;5076047;28;1229;-56
2022/02/20 04:34:41;;;;;;;;;;;;;;;17.36;42.33;100985.38;5108820;28;1113;-55
2022/02/20 04:37:08;;;;;;;;;;;;;;;18.88;38.59;100975.44;5108388;28;1882;-53
2022/02/20 04:39:34;;;;;;;;;;;;;;;18.08;40.30;100969.66;5108567;28;1105;-54
2022/02/20 04:42:01;;;;;;;;;;;;;;;17.98;40.69;100969.69;5108196;28;1220;-54
2022/02/20 04:44:40;;;;;;;;;;;;;;;16.14;44.65;100971.75;5074638;28;1250;-53
2022/02/20 04:47:09;;;;;;;;;;;;;;;15.87;45.93;100971.88;5108157;28;1301;-51
2022/02/20 04:49:34;;;;;;;;;;;;;;;18.58;39.28;100952.41;5108279;28;1945;-54
2022/02/20 04:52:14;;;;;;;;;;;;;;;18.16;40.13;100953.69;5111301;28;1425;-54
2022/02/20 04:55:06;;;;;;;;;;;;;;;18.07;40.57;100956.19;5073586;28;1098;-55
2022/02/20 04:57:33;;;;;;;;;;;;;;;16.58;43.64;100971.44;5077451;28;1980;-53
2022/02/20 04:59:58;;;;;;;;;;;;;;;15.39;46.62;100982.72;5111298;28;1377;-54
2022/02/20 05:02:32;;;;;;;;;;;;;;;18.17;40.27;100988.38;5110541;28;1156;-54
2022/02/20 05:04:57;;;;;;;;;;;;;;;18.56;39.30;100984.94;5111948;28;1225;-52
2022/02/20 05:07:23;;;;;;;;;;;;;;;18.27;40.05;100969.06;5110430;28;1146;-52
2022/02/20 05:09:49;;;;;;;;;;;;;;;17.94;40.51;100980.41;5079551;28;824;-55
2022/02/20 05:12:14;;;;;;;;;;;;;;;16.05;44.97;100985.16;5079179;28;1182;-57
2022/02/20 05:14:40;;;;;;;;;;;;;;;15.66;46.48;100982.66;5079254;28;1032;-55
2022/02/20 05:17:31;;;;;;;;;;;;;;;18.60;39.38;100975.00;5109553;28;1913;-54
2022/02/20 05:20:00;;;;;;;;;;;;;;;18.34;39.66;100980.63;5110054;28;886;-56
2022/02/20 05:22:25;;;;;;;;;;;;;;;18.88;38.75;100980.94;5078207;28;1605;-57
2022/02/20 05:24:56;;;;;;;;;;;;;;;17.68;41.25;100990.59;5077948;28;1120;-57
2022/02/20 05:27:23;;;;;;;;;;;;;;;15.85;45.25;100990.50;5111591;28;1116;-56
2022/02/20 05:29:52;;;;;;;;;;;;;;;15.71;46.20;100996.41;5111552;28;1515;-56
2022/02/20 05:32:23;;;;;;;;;;;;;;;18.34;39.92;100999.88;5111522;28;1328;-56
2022/02/20 05:34:55;;;;;;;;;;;;;;;18.66;38.90;100989.56;5111262;28;1326;-55
2022/02/20 05:37:23;;;;;;;;;;;;;;;18.29;39.91;101008.16;5111006;28;1905;-56
2022/02/20 05:39:49;;;;;;;;;;;;;;;17.52;41.33;101013.72;5111294;28;1196;-51
2022/02/20 05:42:14;;;;;;;;;;;;;;;15.67;45.73;101017.22;5078820;28;910;-54
2022/02/20 05:44:47;;;;;;;;;;;;;;;16.40;44.69;101016.63;5093344;28;995;-55
2022/02/20 05:47:14;;;;;;;;;;;;;;;18.72;39.30;101022.31;5110600;28;1294;-55
2022/02/20 05:49:42;;;;;;;;;;;;;;;18.20;40.05;101026.31;5078573;28;797;-54
2022/02/20 05:52:08;;;;;;;;;;;;;;;18.15;40.21;101018.09;5110943;28;1402;-53
2022/02/20 05:54:43;;;;;;;;;;;;;;;16.64;43.53;101020.88;5111459;28;1168;-54
2022/02/20 05:57:08;;;;;;;;;;;;;;;15.65;46.64;101018.56;5078195;28;1978;-53
2022/02/20 05:59:39;;;;;;;;;;;;;;;18.48;39.68;101022.13;5110831;28;1168;-55
2022/02/20 06:02:04;;;;;;;;;;;;;;;18.40;39.71;101017.22;5077688;28;942;-53
2022/02/20 06:04:30;;;;;;;;;;;;;;;18.48;39.61;101030.38;5077201;28;1260;-52
2022/02/20 06:07:15;;;;;;;;;;;;;;;17.52;41.38;101027.47;5072503;28;1522;-54
2022/02/20 06:10:00;;;;;;;;;;;;;;;15.65;45.85;101030.34;5078935;28;1008;-55
2022/02/20 06:12:32;;;;;;;;;;;;;;;17.16;43.07;101024.66;5077847;28;1009;-49
2022/02/20 06:15:26;;;;;;;;;;;;;;;18.87;38.53;101006.81;5062824;28;1378;-54
2022/02/20 06:18:10;;;;;;;;;;;;;;;18.01;40.43;101015.91;5077987;28;1979;-54
2022/02/20 06:20:45;;;;;;;;;;;;;;;17.20;42.22;101028.50;5110912;28;1246;-52
2022/02/20 06:23:25;;;;;;;;;;;;;;;15.73;45.98;101031.78;5110614;28;1168;-53
2022/02/20 06:26:07;;;;;;;;;;;;;;;16.46;44.20;101044.13;5073176;28;885;-53
2022/02/20 06:28:33;;;;;;;;;;;;;;;16.69;43.85;101020.88;5077784;28;809;-54
2022/02/20 06:30:58;;;;;;;;;;;;;;;16.98;43.17;101004.81;5075884;28;2026;-54
2022/02/20 06:33:26;;;;;;;;;;;;;;;16.91;42.99;101012.47;5076781;28;1118;-50
2022/02/20 06:35:54;;;;;;;;;;;;;;;16.64;43.71;101024.44;5110090;28;1654;-53
2022/02/20 06:38:20;;;;;;;;;;;;;;;16.62;43.74;101021.16;5075861;28;1980;-54
2022/02/20 06:40:49;;;;;;;;;;;;;;;15.89;45.51;101019.06;5104142;28;1454;-54
2022/02/20 06:43:19;;;;;;;;;;;;;;;16.57;44.10;101015.63;5109847;28;1591;-54
2022/02/20 06:45:48;;;;;;;;;;;;;;;17.52;41.79;101005.47;5109793;28;1091;-54
2022/02/20 06:48:32;;;;;;;;;;;;;;;16.88;42.87;101023.97;5077396;28;653;-54
2022/02/20 06:51:23;;;;;;;;;;;;;;;16.42;44.33;101041.91;5075655;28;1179;-52
2022/02/20 06:54:07;;;;;;;;;;;;;;;15.52;46.23;101030.78;5077281;28;642;-54
2022/02/20 06:56:46;;;;;;;;;;;;;;;16.95;43.31;101037.50;5077478;28;801;-53
2022/02/20 06:59:11;;;;;;;;;;;;;;;18.81;38.73;101048.16;5077115;28;1981;-54
2022/02/20 07:01:37;;;;;;;;;;;;;;;19.09;38.17;101045.03;5076773;28;891;-54
2022/02/20 07:04:05;;;;;;;;;;;;;;;17.97;40.43;101047.84;5076487;28;868;-54
2022/02/20 07:06:30;;;;;;;;;;;;;;;16.87;43.09;101044.31;5077049;28;900;-53
2022/02/20 07:08:56;;;;;;;;;;;;;;;15.73;45.89;101057.28;5077184;28;876;-53
2022/02/20 07:11:21;;;;;;;;;;;;;;;15.98;45.27;101061.38;5076643;28;964;-50
2022/02/20 07:13:47;;;;;;;;;;;;;;;16.51;44.04;101053.22;5076246;28;1070;-51
2022/02/20 07:16:13;;;;;;;;;;;;;;;17.28;41.96;101060.97;5076668;28;813;-49
2022/02/20 07:18:38;;;;;;;;;;;;;;;17.17;42.23;101053.78;5077091;28;1910;-52
2022/02/20 07:21:03;;;;;;;;;;;;;;;16.85;43.04;101047.31;5076584;28;840;-53
2022/02/20 07:23:29;;;;;;;;;;;;;;;16.85;43.25;101052.81;5076638;28;774;-53
2022/02/20 07:25:54;;;;;;;;;;;;;;;16.35;44.13;101051.47;5076961;28;934;-52
2022/02/20 07:28:20;;;;;;;;;;;;;;;16.18;44.53;101054.38;5069420;28;785;-52
2022/02/20 07:30:45;;;;;;;;;;;;;;;16.23;44.94;101057.16;5076372;28;847;-52
2022/02/20 07:33:12;;;;;;;;;;;;;;;17.45;41.96;101072.53;5076995;28;836;-52
2022/02/20 07:35:38;;;;;;;;;;;;;;;17.57;41.42;101079.69;5076661;28;792;-52
2022/02/20 07:38:04;;;;;;;;;;;;;;;17.01;42.94;101077.63;5109000;28;1902;-52
2022/02/20 07:40:29;;;;;;;;;;;;;;;16.73;43.48;101085.16;5076313;28;868;-52
2022/02/20 07:42:56;;;;;;;;;;;;;;;16.20;44.85;101085.09;5076470;28;827;-50
2022/02/20 07:45:23;;;;;;;;;;;;;;;16.15;44.64;101098.81;5076222;28;871;-50
2022/02/20 07:47:49;;;;;;;;;;;;;;;16.36;44.53;101084.13;5076998;28;947;-53
2022/02/20 07:50:15;;;;;;;;;;;;;;;17.29;42.21;101090.06;5076012;28;857;-51
2022/02/20 07:52:40;;;;;;;;;;;;;;;17.58;41.80;101081.34;5075897;28;1106;-53
2022/02/20 07:55:06;;;;;;;;;;;;;;;17.22;42.46;101079.34;5075985;28;1013;-55
2022/02/20 07:57:31;;;;;;;;;;;;;;;17.27;42.27;101073.03;5075690;28;1980;-54
2022/02/20 07:59:57;;;;;;;;;;;;;;;16.34;44.40;101064.38;5075930;28;903;-52
2022/02/20 08:02:22;;;;;;;;;;;;;;;15.94;45.72;101065.72;5072056;28;1246;-54
2022/02/20 08:04:48;;;;;;;;;;;;;;;18.31;39.91;101077.50;5075586;28;805;-53
2022/02/20 08:07:13;;;;;;;;;;;;;;;18.44;39.44;101060.41;5075422;28;853;-54
2022/02/20 08:09:39;;;;;;;;;;;;;;;17.62;41.38;101074.19;5076035;28;746;-55
2022/02/20 08:12:04;;;;;;;;;;;;;;;17.09;42.74;101058.69;5075481;28;1174;-53
2022/02/20 08:14:30;;;;;;;;;;;;;;;15.60;45.96;101055.00;5075330;28;1111;-50
2022/02/20 08:16:56;;;;;;;;;;;;;;;16.86;43.69;101053.66;5075446;28;1029;-52
2022/02/20 08:19:21;;;;;;;;;;;;;;;18.80;38.92;101046.53;5074622;28;1913;-53
2022/02/20 08:21:46;;;;;;;;;;;;;;;18.04;40.47;101051.13;5075592;28;893;-53
2022/02/20 08:24:12;;;;;;;;;;;;;;;17.59;41.37;101039.81;5075350;28;834;-50
2022/02/20 08:26:38;;;;;;;;;;;;;;;16.23;44.34;101040.69;5078285;28;904;-53
2022/02/20 08:29:03;;;;;;;;;;;;;;;15.84;46.07;101038.22;5112290;28;1228;-53
2022/02/20 08:31:29;;;;;;;;;;;;;;;18.35;40.26;101023.53;5078907;28;847;-54
2022/02/20 08:33:54;;;;;;;;;;;;;;;18.61;39.07;101023.47;5079000;28;1006;-52
2022/02/20 08:36:20;;;;;;;;;;;;;;;17.83;40.86;101021.97;5078871;28;1125;-52
2022/02/20 08:38:48;;;;;;;;;;;;;;;16.94;42.92;101017.44;5079665;28;1929;-51
2022/02/20 08:41:13;;;;;;;;;;;;;;;15.45;46.83;101022.78;5079205;28;750;-48
2022/02/20 08:43:39;;;;;;;;;;;;;;;16.75;43.78;101031.63;5079446;28;775;-49
2022/02/20 08:46:04;;;;;;;;;;;;;;;18.81;38.93;101023.38;5078728;28;1181;-53
2022/02/20 08:48:35;;;;;;;;;;;;;;;18.11;40.43;101029.66;5079303;28;785;-53
2022/02/20 08:51:00;;;;;;;;;;;;;;;17.46;41.79;101032.13;5079054;28;1416;-51
2022/02/20 08:53:25;;;;;;;;;;;;;;;16.19;44.79;101034.09;5078791;28;899;-50
2022/02/20 08:55:51;;;;;;;;;;;;;;;15.84;46.32;101040.97;5078733;28;884;-53
2022/02/20 08:58:16;;;;;;;;;;;;;;;18.25;40.50;101023.56;5078351;28;1987;-53
2022/02/20 09:00:42;;;;;;;;;;;;;;;18.52;39.55;101038.91;5078665;28;938;-52
2022/02/20 09:03:08;;;;;;;;;;;;;;;17.69;41.35;101032.69;5078755;28;732;-51
2022/02/20 09:05:33;;;;;;;;;;;;;;;16.74;43.55;101029.97;5078800;28;1055;-54
2022/02/20 09:07:58;;;;;;;;;;;;;;;15.69;46.67;101027.94;5079295;28;1226;-48
2022/02/20 09:10:24;;;;;;;;;;;;;;;17.93;41.32;101031.03;5078406;28;1044;-48
2022/02/20 09:12:50;;;;;;;;;;;;;;;19.00;38.77;101033.78;5078266;28;1286;-52
2022/02/20 09:15:16;;;;;;;;;;;;;;;19.54;37.37;101020.22;5078350;28;891;-50
2022/02/20 09:17:41;;;;;;;;;;;;;;;19.89;36.68;101019.09;5078614;28;1914;-50
2022/02/20 09:20:07;;;;;;;;;;;;;;;20.08;36.43;101013.69;5078202;28;794;-49
2022/02/20 09:22:32;;;;;;;;;;;;;;;20.22;36.19;101011.06;5078026;28;805;-56
2022/02/20 09:24:58;;;;;;;;;;;;;;;20.36;36.06;101008.41;5078483;28;913;-52
2022/02/20 09:27:23;;;;;;;;;;;;;;;20.47;35.85;100998.91;5077848;28;840;-51
2022/02/20 09:29:49;;;;;;;;;;;;;;;20.64;35.74;100992.06;5078175;28;1004;-54
2022/02/20 09:32:16;;;;;;;;;;;;;;;20.80;35.35;100995.47;5078465;28;1217;-51
2022/02/20 09:34:42;;;;;;;;;;;;;;;20.87;35.12;100995.13;5071057;28;1036;-51
2022/02/20 09:37:07;;;;;;;;;;;;;;;20.04;36.77;100992.50;5077515;28;1985;-51
2022/02/20 09:39:33;;;;;;;;;;;;;;;19.76;37.43;100983.88;5078506;28;877;-51
2022/02/20 09:41:58;;;;;;;;;;;;;;;19.11;38.72;100991.28;5077611;28;786;-50
2022/02/20 09:44:24;;;;;;;;;;;;;;;18.66;39.87;101001.41;5078455;28;916;-50
2022/02/20 09:46:50;;;;;;;;;;;;;;;19.67;37.83;100997.50;5077784;28;979;-50
2022/02/20 09:49:15;;;;;;;;;;;;;;;20.16;36.74;100985.44;5109803;28;853;-47
2022/02/20 09:51:40;;;;;;;;;;;;;;;20.57;36.16;100991.63;5078209;28;900;-51
2022/02/20 09:54:06;;;;;;;;;;;;;;;20.03;36.87;100988.06;5078136;28;742;-48
2022/02/20 09:56:31;;;;;;;;;;;;;;;18.93;39.08;100976.22;5077907;28;1108;-53
2022/02/20 09:58:57;;;;;;;;;;;;;;;17.80;41.56;100965.56;5078079;28;1988;-53
2022/02/20 10:01:22;;;;;;;;;;;;;;;16.14;45.62;100970.94;5077429;28;902;-53
2022/02/20 10:03:48;;;;;;;;;;;;;;;15.90;46.52;100976.84;5078034;28;823;-53
2022/02/20 10:06:16;;;;;;;;;;;;;;;18.09;41.57;100971.31;5078036;28;732;-53
2022/02/20 10:08:42;;;;;;;;;;;;;;;19.37;38.29;100970.97;5077626;28;910;-47
2022/02/20 10:11:20;;;;;;;;;;;;;;;18.35;40.56;100964.91;5076973;28;1015;-53
2022/02/20 10:13:46;;;;;;;;;;;;;;;17.61;41.99;100970.78;5077289;28;1206;-49
2022/02/20 10:16:30;;;;;;;;;;;;;;;15.86;45.96;100967.47;5077365;28;1383;-48
2022/02/20 10:18:59;;;;;;;;;;;;;;;17.81;41.96;100961.72;5070638;28;1902;-47
2022/02/20 10:21:42;;;;;;;;;;;;;;;19.07;39.16;100957.13;5077284;28;678;-50
2022/02/20 10:24:26;;;;;;;;;;;;;;;19.60;37.97;100941.81;5102080;28;921;-49
2022/02/20 10:27:10;;;;;;;;;;;;;;;19.99;37.25;100932.63;5098203;28;808;-53
2022/02/20 10:30:11;;;;;;;;;;;;;;;20.23;36.49;100943.69;5072375;28;600;-50
2022/02/20 10:32:36;;;;;;;;;;;;;;;20.42;36.27;100935.41;5076516;28;758;-53
2022/02/20 10:35:05;;;;;;;;;;;;;;;20.58;35.98;100933.28;5076733;28;830;-50
2022/02/20 10:37:32;;;;;;;;;;;;;;;20.70;35.58;100927.34;5077155;28;1980;-50
2022/02/20 10:39:57;;;;;;;;;;;;;;;20.90;35.55;100923.50;5076609;28;896;-50
2022/02/20 10:42:24;;;;;;;;;;;;;;;19.86;37.51;100903.78;5077007;28;818;-52
2022/02/20 10:44:52;;;;;;;;;;;;;;;19.66;37.92;100904.81;5108771;28;1510;-48
2022/02/20 10:47:18;;;;;;;;;;;;;;;18.84;39.71;100897.19;5075395;28;1075;-51
2022/02/20 10:49:43;;;;;;;;;;;;;;;18.97;39.71;100880.03;5076213;28;1230;-51
2022/02/20 10:52:21;;;;;;;;;;;;;;;19.87;37.69;100875.09;5076683;28;1013;-49
2022/02/20 10:55:03;;;;;;;;;;;;;;;20.38;36.69;100865.31;5076782;28;861;-50
2022/02/20 10:57:32;;;;;;;;;;;;;;;20.70;36.08;100865.75;5076738;28;1994;-49
2022/02/20 10:59:58;;;;;;;;;;;;;;;20.97;35.50;100867.81;5077054;28;801;-50
2022/02/20 11:02:23;;;;;;;;;;;;;;;21.03;35.24;100850.03;5076449;28;1002;-50
2022/02/20 11:04:49;;;;;;;;;;;;;;;20.24;36.89;100856.13;5076313;28;772;-48
2022/02/20 11:07:16;;;;;;;;;;;;;;;19.84;38.02;100845.31;5077292;28;806;-51
2022/02/20 11:09:42;;;;;;;;;;;;;;;19.31;38.95;100840.63;5108452;28;910;-48
2022/02/20 11:12:08;;;;;;;;;;;;;;;18.52;40.79;100832.38;5076317;28;964;-49
2022/02/20 11:14:33;;;;;;;;;;;;;;;19.65;38.50;100829.47;5108425;28;1213;-50
2022/02/20 11:17:00;;;;;;;;;;;;;;;20.32;37.24;100833.38;5075971;28;880;-52
2022/02/20 11:19:27;;;;;;;;;;;;;;;20.68;36.26;100827.38;5074796;28;1975;-53
2022/02/20 11:21:55;;;;;;;;;;;;;;;20.89;36.13;100833.38;5075732;28;852;-52
2022/02/20 11:24:20;;;;;;;;;;;;;;;21.09;35.49;100834.97;5107414;28;840;-55
2022/02/20 11:26:46;;;;;;;;;;;;;;;20.41;36.97;100828.84;5108599;28;855;-51
2022/02/20 11:29:13;;;;;;;;;;;;;;;19.88;37.90;100826.22;5076551;28;796;-50
2022/02/20 11:31:39;;;;;;;;;;;;;;;19.51;38.61;100827.72;5075731;28;1058;-52
2022/02/20 11:34:04;;;;;;;;;;;;;;;18.26;41.41;100833.38;5108605;28;901;-50
2022/02/20 11:36:30;;;;;;;;;;;;;;;19.44;38.88;100839.09;5108828;28;797;-52
2022/02/20 11:39:02;;;;;;;;;;;;;;;20.15;37.31;100831.94;5075598;28;1909;-56
2022/02/20 11:41:27;;;;;;;;;;;;;;;20.68;36.06;100838.41;5075268;28;1182;-52
2022/02/20 11:43:53;;;;;;;;;;;;;;;20.92;35.83;100832.78;5074159;28;1270;-54
2022/02/20 11:46:22;;;;;;;;;;;;;;;21.13;35.20;100841.53;5075530;28;880;-54
2022/02/20 11:49:03;;;;;;;;;;;;;;;20.23;37.15;100833.25;5076186;28;940;-53
2022/02/20 11:51:29;;;;;;;;;;;;;;;19.98;37.76;100837.16;5075685;28;882;-50
2022/02/20 11:54:13;;;;;;;;;;;;;;;19.11;39.49;100836.09;5075401;28;773;-52
2022/02/20 11:56:39;;;;;;;;;;;;;;;18.63;40.70;100831.22;5071724;28;951;-51
2022/02/20 11:59:14;;;;;;;;;;;;;;;19.84;38.56;100842.56;5108129;28;1906;-50
2022/02/20 12:01:56;;;;;;;;;;;;;;;20.42;37.22;100838.75;5069936;28;856;-50
2022/02/20 12:04:22;;;;;;;;;;;;;;;20.80;36.39;100827.72;5107751;28;1270;-52
2022/02/20 12:06:47;;;;;;;;;;;;;;;21.10;35.94;100825.56;5108029;28;880;-55
2022/02/20 12:09:22;;;;;;;;;;;;;;;20.80;36.37;100824.97;5075671;28;768;-52
2022/02/20 12:11:49;;;;;;;;;;;;;;;20.11;37.70;100825.38;5107845;28;1116;-51
2022/02/20 12:14:14;;;;;;;;;;;;;;;19.82;38.29;100823.53;5075665;28;1218;-53
2022/02/20 12:16:41;;;;;;;;;;;;;;;18.45;41.13;100825.28;5074904;28;840;-52
2022/02/20 12:19:19;;;;;;;;;;;;;;;19.34;39.49;100837.28;5075210;28;1980;-50
2022/02/20 12:21:50;;;;;;;;;;;;;;;20.24;37.71;100839.56;5075406;28;745;-50
2022/02/20 12:24:16;;;;;;;;;;;;;;;20.63;36.70;100841.22;5075105;28;849;-50
2022/02/20 12:26:47;;;;;;;;;;;;;;;20.94;36.12;100835.25;5075273;28;860;-52
2022/02/20 12:29:16;;;;;;;;;;;;;;;21.14;36.05;100826.59;5075661;28;797;-55
2022/02/20 12:32:11;;;;;;;;;;;;;;;20.07;37.99;100823.50;5074790;28;878;-51
2022/02/20 12:34:53;;;;;;;;;;;;;;;20.03;38.51;100817.75;5065431;28;1172;-51
2022/02/20 12:37:19;;;;;;;;;;;;;;;18.69;41.39;100818.22;5075535;28;1914;-55
2022/02/20 12:39:45;;;;;;;;;;;;;;;19.06;40.82;100812.16;5075216;28;773;-51
2022/02/20 12:42:10;;;;;;;;;;;;;;;20.05;38.82;100810.00;5074938;28;915;-49
2022/02/20 12:44:39;;;;;;;;;;;;;;;20.57;37.84;100818.38;5075164;28;995;-52
2022/02/20 12:47:05;;;;;;;;;;;;;;;20.83;37.34;100818.84;5074512;28;796;-49
2022/02/20 12:49:30;;;;;;;;;;;;;;;21.18;37.05;100819.34;5075255;28;813;-52
2022/02/20 12:52:05;;;;;;;;;;;;;;;20.41;38.54;100815.03;5075230;28;773;-53
2022/02/20 12:54:30;;;;;;;;;;;;;;;20.07;39.41;100818.81;5074760;28;817;-51
2022/02/20 12:57:05;;;;;;;;;;;;;;;19.69;40.21;100821.44;5075462;28;1203;-49
2022/02/20 12:59:31;;;;;;;;;;;;;;;18.37;42.96;100805.75;5075023;28;1910;-51